sensor_id;sensor_type;location;lat;lon;timestamp;noise_LAeq;noise_LA_min;noise_LA_max;noise_LA01;noise_LA95
45651;Laerm;31365;48.858;8.530;2024-03-29T00:01:40;53.25;37.32;72.90;;
45651;Laerm;31365;48.858;8.530;2024-03-29T00:04:06;55.20;37.70;73.62;;
45651;Laerm;31365;48.858;8.530;2024-03-29T00:06:34;57.52;37.12;76.14;;
45651;Laerm;31365;48.858;8.530;2024-03-29T00:09:01;41.76;37.52;60.53;;
45651;Laerm;31365;48.858;8.530;2024-03-29T00:11:27;51.47;38.05;69.25;;
45651;Laerm;31365;48.858;8.530;2024-03-29T00:13:54;54.66;38.21;74.76;;
45651;Laerm;31365;48.858;8.530;2024-03-29T00:16:21;41.64;37.70;54.00;;
45651;Laerm;31365;48.858;8.530;2024-03-29T00:18:47;42.21;37.88;61.19;;
45651;Laerm;31365;48.858;8.530;2024-03-29T00:21:14;42.73;38.37;54.42;;
45651;Laerm;31365;48.858;8.530;2024-03-29T00:23:42;41.77;36.69;54.71;;
45651;Laerm;31365;48.858;8.530;2024-03-29T00:26:09;43.01;37.70;58.01;;
45651;Laerm;31365;48.858;8.530;2024-03-29T00:28:35;42.10;37.70;57.15;;
45651;Laerm;31365;48.858;8.530;2024-03-29T00:31:02;42.14;37.88;54.46;;
45651;Laerm;31365;48.858;8.530;2024-03-29T00:33:28;51.66;38.21;69.55;;
45651;Laerm;31365;48.858;8.530;2024-03-29T00:35:55;42.74;38.37;60.73;;
45651;Laerm;31365;48.858;8.530;2024-03-29T00:38:22;41.85;37.88;46.52;;
45651;Laerm;31365;48.858;8.530;2024-03-29T00:40:49;56.92;38.05;79.45;;
45651;Laerm;31365;48.858;8.530;2024-03-29T00:43:16;58.28;37.70;80.97;;
45651;Laerm;31365;48.858;8.530;2024-03-29T00:45:44;55.13;37.70;76.03;;
45651;Laerm;31365;48.858;8.530;2024-03-29T00:48:10;53.32;38.21;74.35;;
45651;Laerm;31365;48.858;8.530;2024-03-29T00:50:36;54.09;37.70;76.94;;
45651;Laerm;31365;48.858;8.530;2024-03-29T00:53:04;42.11;38.67;53.17;;
45651;Laerm;31365;48.858;8.530;2024-03-29T00:55:31;42.99;38.21;60.52;;
45651;Laerm;31365;48.858;8.530;2024-03-29T00:57:59;43.29;38.52;62.48;;
45651;Laerm;31365;48.858;8.530;2024-03-29T01:00:25;44.75;38.37;65.81;;
45651;Laerm;31365;48.858;8.530;2024-03-29T01:02:52;43.37;38.81;49.87;;
45651;Laerm;31365;48.858;8.530;2024-03-29T01:05:19;43.94;40.43;65.25;;
45651;Laerm;31365;48.858;8.530;2024-03-29T01:07:45;53.73;39.81;74.98;;
45651;Laerm;31365;48.858;8.530;2024-03-29T01:10:12;48.99;39.21;67.86;;
45651;Laerm;31365;48.858;8.530;2024-03-29T01:12:38;47.00;36.91;70.97;;
45651;Laerm;31365;48.858;8.530;2024-03-29T01:15:08;45.74;38.95;67.86;;
45651;Laerm;31365;48.858;8.530;2024-03-29T01:17:35;44.52;39.21;68.26;;
45651;Laerm;31365;48.858;8.530;2024-03-29T01:20:01;43.34;39.81;54.73;;
45651;Laerm;31365;48.858;8.530;2024-03-29T01:22:27;43.60;39.08;62.89;;
45651;Laerm;31365;48.858;8.530;2024-03-29T01:24:54;43.31;38.81;64.71;;
45651;Laerm;31365;48.858;8.530;2024-03-29T01:27:21;50.46;40.03;68.09;;
45651;Laerm;31365;48.858;8.530;2024-03-29T01:29:47;58.05;38.81;78.93;;
45651;Laerm;31365;48.858;8.530;2024-03-29T01:32:15;43.70;38.81;63.63;;
45651;Laerm;31365;48.858;8.530;2024-03-29T01:34:41;43.42;39.46;63.17;;
45651;Laerm;31365;48.858;8.530;2024-03-29T01:37:08;43.75;38.95;65.35;;
45651;Laerm;31365;48.858;8.530;2024-03-29T01:39:34;55.42;38.37;74.47;;
45651;Laerm;31365;48.858;8.530;2024-03-29T01:42:01;44.51;37.70;68.27;;
45651;Laerm;31365;48.858;8.530;2024-03-29T01:44:27;42.80;38.95;58.31;;
45651;Laerm;31365;48.858;8.530;2024-03-29T01:46:55;42.98;39.34;59.18;;
45651;Laerm;31365;48.858;8.530;2024-03-29T01:49:24;43.79;40.23;58.94;;
45651;Laerm;31365;48.858;8.530;2024-03-29T01:51:52;43.74;38.81;67.46;;
45651;Laerm;31365;48.858;8.530;2024-03-29T01:54:20;54.06;38.05;73.36;;
45651;Laerm;31365;48.858;8.530;2024-03-29T01:56:48;43.91;39.58;66.77;;
45651;Laerm;31365;48.858;8.530;2024-03-29T01:59:17;56.09;38.95;76.74;;
45651;Laerm;31365;48.858;8.530;2024-03-29T02:01:46;56.14;39.46;77.58;;
45651;Laerm;31365;48.858;8.530;2024-03-29T02:04:15;43.76;39.08;61.40;;
45651;Laerm;31365;48.858;8.530;2024-03-29T02:06:44;55.07;38.37;75.47;;
45651;Laerm;31365;48.858;8.530;2024-03-29T02:09:11;42.93;38.95;53.67;;
45651;Laerm;31365;48.858;8.530;2024-03-29T02:11:39;42.22;38.74;56.00;;
45651;Laerm;31365;48.858;8.530;2024-03-29T02:14:06;42.68;38.37;62.58;;
45651;Laerm;31365;48.858;8.530;2024-03-29T02:16:34;43.58;37.70;70.19;;
45651;Laerm;31365;48.858;8.530;2024-03-29T02:19:03;42.04;37.88;57.32;;
45651;Laerm;31365;48.858;8.530;2024-03-29T02:21:33;41.91;37.70;56.73;;
45651;Laerm;31365;48.858;8.530;2024-03-29T02:24:07;41.47;37.70;44.39;;
45651;Laerm;31365;48.858;8.530;2024-03-29T02:26:35;41.74;36.69;54.15;;
45651;Laerm;31365;48.858;8.530;2024-03-29T02:29:08;42.13;37.12;57.82;;
45651;Laerm;31365;48.858;8.530;2024-03-29T02:31:35;42.56;37.70;53.92;;
45651;Laerm;31365;48.858;8.530;2024-03-29T02:34:03;42.72;38.67;63.67;;
45651;Laerm;31365;48.858;8.530;2024-03-29T02:36:30;42.10;37.52;53.74;;
45651;Laerm;31365;48.858;8.530;2024-03-29T02:38:58;41.85;37.12;46.55;;
45651;Laerm;31365;48.858;8.530;2024-03-29T02:41:27;49.34;38.67;67.05;;
45651;Laerm;31365;48.858;8.530;2024-03-29T02:43:56;42.66;38.81;59.20;;
45651;Laerm;31365;48.858;8.530;2024-03-29T02:46:24;42.89;38.21;62.28;;
45651;Laerm;31365;48.858;8.530;2024-03-29T02:48:52;42.61;37.52;55.07;;
45651;Laerm;31365;48.858;8.530;2024-03-29T02:51:18;42.68;38.05;57.42;;
45651;Laerm;31365;48.858;8.530;2024-03-29T02:53:45;43.10;38.05;65.08;;
45651;Laerm;31365;48.858;8.530;2024-03-29T02:56:13;42.30;38.37;56.92;;
45651;Laerm;31365;48.858;8.530;2024-03-29T02:58:46;42.81;38.95;54.22;;
45651;Laerm;31365;48.858;8.530;2024-03-29T03:01:13;42.21;37.70;55.23;;
45651;Laerm;31365;48.858;8.530;2024-03-29T03:03:40;41.95;37.88;56.75;;
45651;Laerm;31365;48.858;8.530;2024-03-29T03:06:06;42.09;38.52;52.42;;
45651;Laerm;31365;48.858;8.530;2024-03-29T03:08:34;42.31;38.05;57.98;;
45651;Laerm;31365;48.858;8.530;2024-03-29T03:11:19;42.05;38.21;50.43;;
45651;Laerm;31365;48.858;8.530;2024-03-29T03:13:47;41.49;35.94;53.08;;
45651;Laerm;31365;48.858;8.530;2024-03-29T03:16:15;41.52;38.05;50.57;;
45651;Laerm;31365;48.858;8.530;2024-03-29T03:18:42;43.71;37.88;70.98;;
45651;Laerm;31365;48.858;8.530;2024-03-29T03:21:08;41.46;37.88;48.83;;
45651;Laerm;31365;48.858;8.530;2024-03-29T03:23:36;41.60;37.35;48.49;;
45651;Laerm;31365;48.858;8.530;2024-03-29T03:26:03;41.57;38.05;47.46;;
45651;Laerm;31365;48.858;8.530;2024-03-29T03:28:31;41.27;37.52;52.44;;
45651;Laerm;31365;48.858;8.530;2024-03-29T03:30:59;51.77;38.37;71.94;;
45651;Laerm;31365;48.858;8.530;2024-03-29T03:33:26;41.17;36.10;43.81;;
45651;Laerm;31365;48.858;8.530;2024-03-29T03:35:52;41.68;36.91;61.61;;
45651;Laerm;31365;48.858;8.530;2024-03-29T03:38:19;41.96;35.94;58.78;;
45651;Laerm;31365;48.858;8.530;2024-03-29T03:40:46;41.36;36.45;56.66;;
45651;Laerm;31365;48.858;8.530;2024-03-29T03:43:13;42.19;36.69;67.48;;
45651;Laerm;31365;48.858;8.530;2024-03-29T03:45:40;42.48;37.32;59.11;;
45651;Laerm;31365;48.858;8.530;2024-03-29T03:48:10;43.79;37.32;59.97;;
45651;Laerm;31365;48.858;8.530;2024-03-29T03:50:37;57.34;37.88;75.62;;
45651;Laerm;31365;48.858;8.530;2024-03-29T03:53:05;47.16;35.66;64.13;;
45651;Laerm;31365;48.858;8.530;2024-03-29T03:55:35;47.67;36.91;65.05;;
45651;Laerm;31365;48.858;8.530;2024-03-29T03:58:04;48.44;35.66;66.34;;
45651;Laerm;31365;48.858;8.530;2024-03-29T04:00:30;50.78;37.12;68.26;;
45651;Laerm;31365;48.858;8.530;2024-03-29T04:02:58;51.80;37.32;70.40;;
45651;Laerm;31365;48.858;8.530;2024-03-29T04:05:25;51.46;36.45;68.37;;
45651;Laerm;31365;48.858;8.530;2024-03-29T04:07:53;53.33;37.70;70.99;;
45651;Laerm;31365;48.858;8.530;2024-03-29T04:10:20;59.20;38.21;78.05;;
45651;Laerm;31365;48.858;8.530;2024-03-29T04:12:50;52.70;36.20;70.35;;
45651;Laerm;31365;48.858;8.530;2024-03-29T04:15:17;52.99;35.66;71.25;;
45651;Laerm;31365;48.858;8.530;2024-03-29T04:17:44;54.52;36.69;72.01;;
45651;Laerm;31365;48.858;8.530;2024-03-29T04:20:11;54.32;37.32;72.19;;
45651;Laerm;31365;48.858;8.530;2024-03-29T04:22:39;60.72;38.21;79.48;;
45651;Laerm;31365;48.858;8.530;2024-03-29T04:25:07;57.19;38.02;78.16;;
45651;Laerm;31365;48.858;8.530;2024-03-29T04:27:34;53.43;38.81;71.82;;
45651;Laerm;31365;48.858;8.530;2024-03-29T04:30:01;56.20;37.12;73.25;;
45651;Laerm;31365;48.858;8.530;2024-03-29T04:32:28;57.28;37.12;73.58;;
45651;Laerm;31365;48.858;8.530;2024-03-29T04:34:56;54.57;36.91;74.30;;
45651;Laerm;31365;48.858;8.530;2024-03-29T04:37:22;54.56;38.18;73.01;;
45651;Laerm;31365;48.858;8.530;2024-03-29T04:39:51;56.06;39.08;71.94;;
45651;Laerm;31365;48.858;8.530;2024-03-29T04:42:18;45.94;37.88;61.74;;
45651;Laerm;31365;48.858;8.530;2024-03-29T04:44:46;57.74;37.70;76.86;;
45651;Laerm;31365;48.858;8.530;2024-03-29T04:47:13;54.94;37.12;77.25;;
45651;Laerm;31365;48.858;8.530;2024-03-29T04:49:41;43.22;37.52;55.31;;
45651;Laerm;31365;48.858;8.530;2024-03-29T04:52:08;57.19;35.04;75.08;;
45651;Laerm;31365;48.858;8.530;2024-03-29T04:54:35;42.17;37.32;52.48;;
45651;Laerm;31365;48.858;8.530;2024-03-29T04:57:04;49.50;38.05;68.60;;
45651;Laerm;31365;48.858;8.530;2024-03-29T04:59:33;55.66;37.52;74.54;;
45651;Laerm;31365;48.858;8.530;2024-03-29T05:02:01;42.21;38.37;53.94;;
45651;Laerm;31365;48.858;8.530;2024-03-29T05:04:28;43.27;38.21;66.79;;
45651;Laerm;31365;48.858;8.530;2024-03-29T05:06:57;42.12;38.21;58.32;;
45651;Laerm;31365;48.858;8.530;2024-03-29T05:09:26;43.06;38.67;55.48;;
45651;Laerm;31365;48.858;8.530;2024-03-29T05:11:53;54.89;39.34;77.26;;
45651;Laerm;31365;48.858;8.530;2024-03-29T05:14:22;43.92;38.81;71.04;;
45651;Laerm;31365;48.858;8.530;2024-03-29T05:19:17;42.68;39.81;53.43;;
45651;Laerm;31365;48.858;8.530;2024-03-29T05:21:44;43.61;38.81;59.28;;
45651;Laerm;31365;48.858;8.530;2024-03-29T05:24:12;54.60;39.58;74.01;;
45651;Laerm;31365;48.858;8.530;2024-03-29T05:26:39;53.52;38.81;71.14;;
45651;Laerm;31365;48.858;8.530;2024-03-29T05:29:07;43.40;39.70;59.64;;
45651;Laerm;31365;48.858;8.530;2024-03-29T05:31:36;60.12;39.21;84.13;;
45651;Laerm;31365;48.858;8.530;2024-03-29T05:34:04;56.35;38.95;75.51;;
45651;Laerm;31365;48.858;8.530;2024-03-29T05:36:32;52.59;39.81;71.01;;
45651;Laerm;31365;48.858;8.530;2024-03-29T05:39:00;54.73;38.95;76.05;;
45651;Laerm;31365;48.858;8.530;2024-03-29T05:41:27;54.30;38.81;72.36;;
45651;Laerm;31365;48.858;8.530;2024-03-29T05:43:56;46.21;39.46;69.57;;
45651;Laerm;31365;48.858;8.530;2024-03-29T05:46:23;44.82;39.92;61.96;;
45651;Laerm;31365;48.858;8.530;2024-03-29T05:48:53;53.42;38.21;73.01;;
45651;Laerm;31365;48.858;8.530;2024-03-29T05:51:20;56.22;39.34;76.03;;
45651;Laerm;31365;48.858;8.530;2024-03-29T05:53:47;56.08;39.34;73.07;;
45651;Laerm;31365;48.858;8.530;2024-03-29T05:56:15;55.77;37.52;75.71;;
45651;Laerm;31365;48.858;8.530;2024-03-29T05:58:42;55.84;38.52;72.54;;
45651;Laerm;31365;48.858;8.530;2024-03-29T06:01:11;47.62;38.05;68.17;;
45651;Laerm;31365;48.858;8.530;2024-03-29T06:03:38;58.36;40.13;82.13;;
45651;Laerm;31365;48.858;8.530;2024-03-29T06:06:08;50.24;37.35;71.94;;
45651;Laerm;31365;48.858;8.530;2024-03-29T06:08:42;58.95;38.05;82.72;;
45651;Laerm;31365;48.858;8.530;2024-03-29T06:11:10;41.68;37.88;59.77;;
45651;Laerm;31365;48.858;8.530;2024-03-29T06:13:38;51.92;37.70;69.82;;
45651;Laerm;31365;48.858;8.530;2024-03-29T06:16:43;41.46;35.59;52.62;;
45651;Laerm;31365;48.858;8.530;2024-03-29T06:19:28;47.09;37.52;64.34;;
45651;Laerm;31365;48.858;8.530;2024-03-29T06:21:57;53.11;37.32;73.32;;
45651;Laerm;31365;48.858;8.530;2024-03-29T06:24:24;41.42;37.12;51.69;;
45651;Laerm;31365;48.858;8.530;2024-03-29T06:26:51;51.93;38.52;70.47;;
45651;Laerm;31365;48.858;8.530;2024-03-29T06:29:20;52.41;38.05;71.11;;
45651;Laerm;31365;48.858;8.530;2024-03-29T06:31:47;42.18;38.47;52.78;;
45651;Laerm;31365;48.858;8.530;2024-03-29T06:34:14;53.16;37.32;73.04;;
45651;Laerm;31365;48.858;8.530;2024-03-29T06:36:42;57.84;38.52;75.24;;
45651;Laerm;31365;48.858;8.530;2024-03-29T06:39:12;55.28;37.70;73.80;;
45651;Laerm;31365;48.858;8.530;2024-03-29T06:41:39;54.72;37.52;76.86;;
45651;Laerm;31365;48.858;8.530;2024-03-29T06:44:06;57.77;40.33;75.57;;
45651;Laerm;31365;48.858;8.530;2024-03-29T06:46:34;53.79;39.08;73.63;;
45651;Laerm;31365;48.858;8.530;2024-03-29T06:49:02;41.75;37.52;58.78;;
45651;Laerm;31365;48.858;8.530;2024-03-29T06:51:30;55.22;38.05;71.78;;
45651;Laerm;31365;48.858;8.530;2024-03-29T06:53:58;44.07;38.52;59.83;;
45651;Laerm;31365;48.858;8.530;2024-03-29T06:56:27;58.99;38.67;79.22;;
45651;Laerm;31365;48.858;8.530;2024-03-29T06:58:57;57.27;40.71;75.65;;
45651;Laerm;31365;48.858;8.530;2024-03-29T07:01:25;55.78;40.33;72.70;;
45651;Laerm;31365;48.858;8.530;2024-03-29T07:03:52;59.96;39.70;77.67;;
45651;Laerm;31365;48.858;8.530;2024-03-29T07:06:20;54.02;39.70;72.17;;
45651;Laerm;31365;48.858;8.530;2024-03-29T07:08:48;54.28;38.37;74.25;;
45651;Laerm;31365;48.858;8.530;2024-03-29T07:11:16;50.71;38.21;67.96;;
45651;Laerm;31365;48.858;8.530;2024-03-29T07:13:44;58.95;38.37;76.89;;
45651;Laerm;31365;48.858;8.530;2024-03-29T07:16:11;57.72;38.05;72.20;;
45651;Laerm;31365;48.858;8.530;2024-03-29T07:18:38;53.79;37.52;72.72;;
45651;Laerm;31365;48.858;8.530;2024-03-29T07:21:06;60.29;38.52;77.98;;
45651;Laerm;31365;48.858;8.530;2024-03-29T07:23:33;60.59;44.31;79.14;;
45651;Laerm;31365;48.858;8.530;2024-03-29T07:26:02;54.07;38.95;77.03;;
45651;Laerm;31365;48.858;8.530;2024-03-29T07:28:32;44.46;39.21;64.72;;
45651;Laerm;31365;48.858;8.530;2024-03-29T07:31:07;58.34;38.67;73.53;;
45651;Laerm;31365;48.858;8.530;2024-03-29T07:33:36;54.99;41.53;71.41;;
45651;Laerm;31365;48.858;8.530;2024-03-29T07:36:04;58.99;40.23;77.95;;
45651;Laerm;31365;48.858;8.530;2024-03-29T07:38:32;63.21;41.06;80.12;;
45651;Laerm;31365;48.858;8.530;2024-03-29T07:41:00;62.54;41.61;82.40;;
45651;Laerm;31365;48.858;8.530;2024-03-29T07:43:38;61.08;42.09;78.11;;
45651;Laerm;31365;48.858;8.530;2024-03-29T07:46:08;64.32;40.89;82.44;;
45651;Laerm;31365;48.858;8.530;2024-03-29T07:48:36;59.98;40.23;77.14;;
45651;Laerm;31365;48.858;8.530;2024-03-29T07:51:03;59.75;42.29;78.84;;
45651;Laerm;31365;48.858;8.530;2024-03-29T07:53:31;60.57;42.03;75.73;;
45651;Laerm;31365;48.858;8.530;2024-03-29T07:55:58;64.05;41.30;78.80;;
45651;Laerm;31365;48.858;8.530;2024-03-29T07:58:27;63.16;42.93;76.94;;
45651;Laerm;31365;48.858;8.530;2024-03-29T08:00:54;63.97;42.59;81.03;;
45651;Laerm;31365;48.858;8.530;2024-03-29T08:03:23;62.59;44.62;79.27;;
45651;Laerm;31365;48.858;8.530;2024-03-29T08:05:57;62.64;42.71;77.85;;
45651;Laerm;31365;48.858;8.530;2024-03-29T08:08:23;62.83;41.14;81.65;;
45651;Laerm;31365;48.858;8.530;2024-03-29T08:10:53;59.68;40.80;81.73;;
45651;Laerm;31365;48.858;8.530;2024-03-29T08:13:21;60.49;41.53;82.63;;
45651;Laerm;31365;48.858;8.530;2024-03-29T08:15:49;65.00;42.16;80.12;;
45651;Laerm;31365;48.858;8.530;2024-03-29T08:18:16;59.59;41.89;75.15;;
45651;Laerm;31365;48.858;8.530;2024-03-29T08:20:45;60.41;42.71;77.59;;
45651;Laerm;31365;48.858;8.530;2024-03-29T08:23:12;61.22;42.53;81.97;;
45651;Laerm;31365;48.858;8.530;2024-03-29T08:25:40;61.39;43.29;79.02;;
45651;Laerm;31365;48.858;8.530;2024-03-29T08:28:07;60.35;45.11;75.79;;
45651;Laerm;31365;48.858;8.530;2024-03-29T08:30:35;63.03;42.22;79.63;;
45651;Laerm;31365;48.858;8.530;2024-03-29T08:33:03;63.26;43.19;81.23;;
45651;Laerm;31365;48.858;8.530;2024-03-29T08:35:32;62.68;43.19;78.36;;
45651;Laerm;31365;48.858;8.530;2024-03-29T08:38:02;64.45;43.77;78.30;;
45651;Laerm;31365;48.858;8.530;2024-03-29T08:40:29;62.63;41.68;77.92;;
45651;Laerm;31365;48.858;8.530;2024-03-29T08:43:00;62.74;41.06;80.45;;
45651;Laerm;31365;48.858;8.530;2024-03-29T08:45:31;62.97;41.38;77.67;;
45651;Laerm;31365;48.858;8.530;2024-03-29T08:47:58;63.96;41.22;81.49;;
45651;Laerm;31365;48.858;8.530;2024-03-29T08:50:25;61.43;41.30;78.77;;
45651;Laerm;31365;48.858;8.530;2024-03-29T08:52:53;63.22;40.23;79.87;;
45651;Laerm;31365;48.858;8.530;2024-03-29T08:55:22;60.24;41.06;73.55;;
45651;Laerm;31365;48.858;8.530;2024-03-29T08:57:49;66.78;44.19;82.90;;
45651;Laerm;31365;48.858;8.530;2024-03-29T09:00:17;61.61;40.98;77.17;;
45651;Laerm;31365;48.858;8.530;2024-03-29T09:02:46;64.80;42.09;78.94;;
45651;Laerm;31365;48.858;8.530;2024-03-29T09:05:13;63.58;45.11;76.99;;
45651;Laerm;31365;48.858;8.530;2024-03-29T09:07:41;65.18;44.11;82.73;;
45651;Laerm;31365;48.858;8.530;2024-03-29T09:10:08;62.67;40.71;81.63;;
45651;Laerm;31365;48.858;8.530;2024-03-29T09:12:37;66.97;43.14;80.59;;
45651;Laerm;31365;48.858;8.530;2024-03-29T09:15:06;62.02;40.33;80.03;;
45651;Laerm;31365;48.858;8.530;2024-03-29T09:17:39;63.86;39.92;85.40;;
45651;Laerm;31365;48.858;8.530;2024-03-29T09:20:08;59.27;40.71;75.56;;
45651;Laerm;31365;48.858;8.530;2024-03-29T09:22:36;63.90;43.94;80.98;;
45651;Laerm;31365;48.858;8.530;2024-03-29T09:25:04;61.75;42.09;78.66;;
45651;Laerm;31365;48.858;8.530;2024-03-29T09:27:32;62.01;40.89;78.00;;
45651;Laerm;31365;48.858;8.530;2024-03-29T09:30:05;60.56;41.14;78.47;;
45651;Laerm;31365;48.858;8.530;2024-03-29T09:32:33;65.97;43.24;80.95;;
45651;Laerm;31365;48.858;8.530;2024-03-29T09:35:01;59.42;41.06;75.00;;
45651;Laerm;31365;48.858;8.530;2024-03-29T09:37:28;65.17;41.53;84.37;;
45651;Laerm;31365;48.858;8.530;2024-03-29T09:39:55;63.83;41.68;77.25;;
45651;Laerm;31365;48.858;8.530;2024-03-29T09:42:23;61.05;40.98;78.21;;
45651;Laerm;31365;48.858;8.530;2024-03-29T09:44:56;64.11;40.62;80.29;;
45651;Laerm;31365;48.858;8.530;2024-03-29T09:47:27;64.00;42.98;78.49;;
45651;Laerm;31365;48.858;8.530;2024-03-29T09:49:56;67.38;43.34;80.91;;
45651;Laerm;31365;48.858;8.530;2024-03-29T09:52:26;65.31;44.11;79.60;;
45651;Laerm;31365;48.858;8.530;2024-03-29T09:54:56;61.83;41.06;79.52;;
45651;Laerm;31365;48.858;8.530;2024-03-29T09:57:24;63.05;42.53;79.94;;
45651;Laerm;31365;48.858;8.530;2024-03-29T09:59:56;61.48;39.81;77.71;;
45651;Laerm;31365;48.858;8.530;2024-03-29T10:02:29;65.74;39.58;83.25;;
45651;Laerm;31365;48.858;8.530;2024-03-29T10:05:00;55.44;39.08;74.41;;
45651;Laerm;31365;48.858;8.530;2024-03-29T10:07:33;61.65;40.23;75.27;;
45651;Laerm;31365;48.858;8.530;2024-03-29T10:10:02;59.96;39.21;78.23;;
45651;Laerm;31365;48.858;8.530;2024-03-29T10:12:30;63.09;41.06;77.29;;
45651;Laerm;31365;48.858;8.530;2024-03-29T10:14:58;61.63;38.95;76.97;;
45651;Laerm;31365;48.858;8.530;2024-03-29T10:17:34;61.97;40.13;80.05;;
45651;Laerm;31365;48.858;8.530;2024-03-29T10:20:06;63.59;41.22;80.57;;
45651;Laerm;31365;48.858;8.530;2024-03-29T10:22:40;62.16;40.53;74.92;;
45651;Laerm;31365;48.858;8.530;2024-03-29T10:25:08;62.88;40.62;79.98;;
45651;Laerm;31365;48.858;8.530;2024-03-29T10:27:35;61.83;39.08;75.49;;
45651;Laerm;31365;48.858;8.530;2024-03-29T10:30:04;63.84;40.89;82.87;;
45651;Laerm;31365;48.858;8.530;2024-03-29T10:32:33;61.53;40.08;75.56;;
45651;Laerm;31365;48.858;8.530;2024-03-29T10:35:00;58.13;37.32;74.56;;
45651;Laerm;31365;48.858;8.530;2024-03-29T10:37:29;63.70;40.33;79.50;;
45651;Laerm;31365;48.858;8.530;2024-03-29T10:40:01;61.44;38.67;79.47;;
45651;Laerm;31365;48.858;8.530;2024-03-29T10:42:32;64.22;41.46;80.01;;
45651;Laerm;31365;48.858;8.530;2024-03-29T10:45:01;61.54;40.62;77.80;;
45651;Laerm;31365;48.858;8.530;2024-03-29T10:47:30;62.12;39.08;79.51;;
45651;Laerm;31365;48.858;8.530;2024-03-29T10:50:01;61.39;38.67;78.17;;
45651;Laerm;31365;48.858;8.530;2024-03-29T10:52:31;62.32;41.38;79.14;;
45651;Laerm;31365;48.858;8.530;2024-03-29T10:54:59;60.30;40.33;77.96;;
45651;Laerm;31365;48.858;8.530;2024-03-29T10:57:27;63.35;40.53;78.29;;
45651;Laerm;31365;48.858;8.530;2024-03-29T11:00:03;62.89;39.46;77.74;;
45651;Laerm;31365;48.858;8.530;2024-03-29T11:02:48;61.33;37.52;77.21;;
45651;Laerm;31365;48.858;8.530;2024-03-29T11:05:18;61.31;39.81;73.25;;
45651;Laerm;31365;48.858;8.530;2024-03-29T11:07:48;60.89;38.37;73.87;;
45651;Laerm;31365;48.858;8.530;2024-03-29T11:10:25;58.38;38.87;72.66;;
45651;Laerm;31365;48.858;8.530;2024-03-29T11:13:01;66.26;39.21;87.29;;
45651;Laerm;31365;48.858;8.530;2024-03-29T11:15:33;67.64;39.21;93.12;;
45651;Laerm;31365;48.858;8.530;2024-03-29T11:18:02;61.08;40.27;76.58;;
45651;Laerm;31365;48.858;8.530;2024-03-29T11:20:32;64.15;42.59;82.65;;
45651;Laerm;31365;48.858;8.530;2024-03-29T11:23:08;62.39;41.68;77.55;;
45651;Laerm;31365;48.858;8.530;2024-03-29T11:25:42;61.10;41.53;76.35;;
45651;Laerm;31365;48.858;8.530;2024-03-29T11:28:12;60.50;40.13;75.59;;
45651;Laerm;31365;48.858;8.530;2024-03-29T11:30:49;63.10;39.92;77.96;;
45651;Laerm;31365;48.858;8.530;2024-03-29T11:33:32;61.98;38.21;76.87;;
45651;Laerm;31365;48.858;8.530;2024-03-29T11:36:10;61.43;40.80;77.67;;
45651;Laerm;31365;48.858;8.530;2024-03-29T11:38:39;63.31;41.46;79.88;;
45651;Laerm;31365;48.858;8.530;2024-03-29T11:41:12;62.28;38.52;77.66;;
45651;Laerm;31365;48.858;8.530;2024-03-29T11:43:41;61.21;41.75;76.56;;
45651;Laerm;31365;48.858;8.530;2024-03-29T11:46:10;60.41;39.92;76.19;;
45651;Laerm;31365;48.858;8.530;2024-03-29T11:48:38;59.11;35.36;74.32;;
45651;Laerm;31365;48.858;8.530;2024-03-29T11:51:10;60.71;39.08;75.45;;
45651;Laerm;31365;48.858;8.530;2024-03-29T11:53:40;60.55;41.53;73.43;;
45651;Laerm;31365;48.858;8.530;2024-03-29T11:56:08;60.07;38.37;77.73;;
45651;Laerm;31365;48.858;8.530;2024-03-29T11:58:37;63.44;40.80;78.59;;
45651;Laerm;31365;48.858;8.530;2024-03-29T12:01:05;58.80;38.81;74.61;;
45651;Laerm;31365;48.858;8.530;2024-03-29T12:03:38;60.97;41.61;75.67;;
45651;Laerm;31365;48.858;8.530;2024-03-29T12:06:08;59.89;42.47;77.85;;
45651;Laerm;31365;48.858;8.530;2024-03-29T12:08:38;61.23;38.67;77.32;;
45651;Laerm;31365;48.858;8.530;2024-03-29T12:11:08;61.29;39.34;78.77;;
45651;Laerm;31365;48.858;8.530;2024-03-29T12:13:36;51.63;34.69;70.04;;
45651;Laerm;31365;48.858;8.530;2024-03-29T12:16:05;58.94;39.08;74.74;;
45651;Laerm;31365;48.858;8.530;2024-03-29T12:18:34;59.35;39.92;73.55;;
45651;Laerm;31365;48.858;8.530;2024-03-29T12:21:03;62.66;42.35;75.84;;
45651;Laerm;31365;48.858;8.530;2024-03-29T12:23:32;65.05;38.52;84.77;;
45651;Laerm;31365;48.858;8.530;2024-03-29T12:26:01;62.24;40.89;77.12;;
45651;Laerm;31365;48.858;8.530;2024-03-29T12:31:00;60.91;37.52;74.62;;
45651;Laerm;31365;48.858;8.530;2024-03-29T12:33:29;60.33;38.81;76.04;;
45651;Laerm;31365;48.858;8.530;2024-03-29T12:35:58;62.39;37.70;78.83;;
45651;Laerm;31365;48.858;8.530;2024-03-29T12:38:25;59.64;40.79;72.95;;
45651;Laerm;31365;48.858;8.530;2024-03-29T12:40:54;59.08;39.81;75.14;;
45651;Laerm;31365;48.858;8.530;2024-03-29T12:43:23;62.50;41.22;83.27;;
45651;Laerm;31365;48.858;8.530;2024-03-29T12:45:51;59.54;41.14;75.65;;
45651;Laerm;31365;48.858;8.530;2024-03-29T12:48:20;61.32;40.71;79.00;;
45651;Laerm;31365;48.858;8.530;2024-03-29T12:50:49;62.25;40.53;78.67;;
45651;Laerm;31365;48.858;8.530;2024-03-29T12:53:17;64.67;41.22;77.89;;
45651;Laerm;31365;48.858;8.530;2024-03-29T12:55:47;64.26;40.03;79.22;;
45651;Laerm;31365;48.858;8.530;2024-03-29T12:58:17;62.73;39.78;76.55;;
45651;Laerm;31365;48.858;8.530;2024-03-29T13:00:48;61.03;38.87;77.14;;
45651;Laerm;31365;48.858;8.530;2024-03-29T13:03:16;63.66;41.82;75.95;;
45651;Laerm;31365;48.858;8.530;2024-03-29T13:05:43;57.26;41.61;73.01;;
45651;Laerm;31365;48.858;8.530;2024-03-29T13:08:12;62.36;41.46;78.98;;
45651;Laerm;31365;48.858;8.530;2024-03-29T13:10:43;62.75;38.52;75.83;;
45651;Laerm;31365;48.858;8.530;2024-03-29T13:13:11;64.49;38.37;84.54;;
45651;Laerm;31365;48.858;8.530;2024-03-29T13:15:40;62.50;41.22;76.97;;
45651;Laerm;31365;48.858;8.530;2024-03-29T13:18:09;62.75;39.58;78.25;;
45651;Laerm;31365;48.858;8.530;2024-03-29T13:20:37;60.87;37.70;73.98;;
45651;Laerm;31365;48.858;8.530;2024-03-29T13:23:07;59.29;38.52;75.32;;
45651;Laerm;31365;48.858;8.530;2024-03-29T13:25:34;61.54;38.67;76.33;;
45651;Laerm;31365;48.858;8.530;2024-03-29T13:28:02;61.59;38.81;74.03;;
45651;Laerm;31365;48.858;8.530;2024-03-29T13:30:30;55.91;37.52;72.95;;
45651;Laerm;31365;48.858;8.530;2024-03-29T13:32:58;59.78;38.81;75.80;;
45651;Laerm;31365;48.858;8.530;2024-03-29T13:35:25;61.20;40.43;78.96;;
45651;Laerm;31365;48.858;8.530;2024-03-29T13:37:53;59.94;36.45;74.84;;
45651;Laerm;31365;48.858;8.530;2024-03-29T13:40:23;56.95;37.35;73.42;;
45651;Laerm;31365;48.858;8.530;2024-03-29T13:42:51;56.06;37.32;75.08;;
45651;Laerm;31365;48.858;8.530;2024-03-29T13:45:18;55.97;35.94;73.38;;
45651;Laerm;31365;48.858;8.530;2024-03-29T13:47:46;62.03;38.52;73.75;;
45651;Laerm;31365;48.858;8.530;2024-03-29T13:50:15;59.18;41.38;74.29;;
45651;Laerm;31365;48.858;8.530;2024-03-29T13:52:43;62.97;38.52;76.77;;
45651;Laerm;31365;48.858;8.530;2024-03-29T13:55:11;58.25;36.69;74.85;;
45651;Laerm;31365;48.858;8.530;2024-03-29T13:57:38;58.53;37.70;78.84;;